Terminal Aerodrome Forecast
Issued by NWS Tulsa, OK

Home | Current Version | Previous Version | Text Only | Print | Product List | Glossary On
Versions: 1 2 3 4 5 6 7 8 9 10 11 12 13 14 15 16 17 18 19
000
FTUS44 KTSA 220500
TAFTUL
TAF
KTUL 220529Z 2206/2306 16012KT 5SM -DZ BR OVC007
     FM221200 17012KT 3SM BR OVC004
     FM221600 20007KT 5SM BR OVC009
     FM221800 27012KT P6SM BKN015
     FM222000 28014G22KT P6SM SCT025 BKN040
     FM222300 27010KT P6SM SCT250=

USA.gov is the U.S. government's official web portal to all federal, state and local government web resources and services.